Hauptseite
METAR-TAF:

METAR-TAF

Flughäfen :

Flughafen Recife

Recife, Pernambuco, Brasilien

Breite: 08-08S, Länge: 034-55W, Höhe: 19 m

Beobachtung

Neuester Wetterbericht von vor 37 Minuten, um 08:00 UTC
Wind 4 kt aus Nordwest
Temperatur 25°C
Luftfeuchtigkeit 83%
Luftdruck 1012 hPa
Sichtweite 10 km oder mehr
Aufgelockert bewölkt in der Höhe von 2000 ft
Aufgelockert bewölkt in der Höhe von 5000 ft

METAR: SBRF 160800Z 32004KT 9999 SCT020 SCT050 25/22 Q1012

Zeit: 05:37 (08:37 UTC)

Prognose

Neuester Wetterbericht von vor 6 Stunden und 37 Minuten, um 02:00 UTC
Gültige Prognose vom 16 um 06 UTC bis 17 um 06 UTC
Wind 7 kt aus Ost
Sichtweite: 9000 m
Aufgelockert bewölkt in der Höhe von 2200 ft

TAF: SBRF 160200Z 1606/1706 08007KT 9000 SCT022 TN24/1608Z TX28/1615Z RMK PBO

Wetterbeobachtungen und Prognosen von mehr als 4000 Flughäfen (METAR und TAF Bericht).

Die verfügbaren Stationen werden durch gelbe und rote Markierungen auf der Karte dargestellt.

Führen Sie die Maus auf sie, um den Namen der Station zu sehen.

Darauf klicken, um die Beobachtung von Wetterbeobachtungen und Prognosen zu sehen.

Um die Karte zu ändern : klicken Sie auf den grünen Tasten mit einem schwarzen Kreuz Zum Vergrößern, auf den grünen Button mit einem Gedankenstrich zu verkleinern, oder auf die grünen Pfeile für benachbarte Karten.


METAR-TAF: